Mon, 15 Apr 2024 22:40:30 UTC | login

Information for RPM dotnet-templates-3.1-3.1.416-1.el8_5.x86_64.rpm

ID410809
Namedotnet-templates-3.1
Version3.1.416
Release1.el8_5
Epoch
Archx86_64
Summary.NET Core 3.1 templates
DescriptionThis package contains templates used by the .NET Core SDK. ASP.NET Core is a fast, lightweight and modular platform for creating cross platform web applications that work on Linux, Mac and Windows. It particularly focuses on creating console applications, web applications and micro-services.
Build Time2021-12-22 15:29:20 GMT
Size1.94 MB
c636599d6aa56269b77dd18328c63a56
LicenseMIT and ASL 2.0 and BSD
Buildrootdist-c8_5-updates-build-81504-31824
Provides
dotnet-templates-3.1 = 3.1.416-1.el8_5
dotnet-templates-3.1(x86-64) = 3.1.416-1.el8_5
Obsoletes No Obsoletes
Conflicts No Conflicts
Requires
dotnet-host(x86-64) >= 3.1.22-1.el8_5
rpmlib(CompressedFileNames) <= 3.0.4-1
rpmlib(FileDigests) <= 4.6.0-1
rpmlib(PayloadFilesHavePrefix) <= 4.0-1
rpmlib(PayloadIsXz) <= 5.2-1
Recommends No Recommends
Suggests No Suggests
Supplements No Supplements
Enhances No Enhances
Files
1 through 10 of 10
Name ascending sort Size
/usr/lib64/dotnet/templates0.00 B
/usr/lib64/dotnet/templates/3.1.230.00 B
/usr/lib64/dotnet/templates/3.1.23/microsoft.aspnetcore.components.webassembly.templates.3.2.1.nupkg277.80 KB
/usr/lib64/dotnet/templates/3.1.23/microsoft.dotnet.common.itemtemplates.3.1.21.nupkg14.20 KB
/usr/lib64/dotnet/templates/3.1.23/microsoft.dotnet.common.projecttemplates.3.1.3.1.21.nupkg21.14 KB
/usr/lib64/dotnet/templates/3.1.23/microsoft.dotnet.test.projecttemplates.3.1.1.0.2-beta4.20176.1.nupkg22.36 KB
/usr/lib64/dotnet/templates/3.1.23/microsoft.dotnet.web.itemtemplates.3.1.22.nupkg20.22 KB
/usr/lib64/dotnet/templates/3.1.23/microsoft.dotnet.web.projecttemplates.3.1.3.1.22.nupkg3.16 MB
/usr/lib64/dotnet/templates/3.1.23/microsoft.dotnet.web.spa.projecttemplates.3.1.3.1.22.nupkg724.26 KB
/usr/lib64/dotnet/templates/3.1.23/nunit3.dotnetnew.template.1.7.2.nupkg19.74 KB
Component of
Page:
1 through 50 of 420 >>>
Buildroot descending sort Created State
dist-c8-stream-build-96839-40395 2023-01-17 07:05:12 expired
dist-c8-stream-build-96786-40355 2023-01-16 11:14:15 expired
dist-c8-stream-build-96764-40355 2023-01-15 15:04:24 expired
dist-c8-stream-build-96737-40345 2023-01-14 19:03:35 expired
dist-c8-stream-build-96676-40315 2023-01-13 23:10:51 expired
dist-c8-stream-build-96625-40282 2023-01-13 03:03:37 expired
dist-c8-stream-build-96554-40227 2023-01-12 07:03:04 expired
dist-c8-stream-build-96505-40197 2023-01-11 11:13:06 expired
dist-c8-stream-build-96482-40197 2023-01-10 15:08:02 expired
dist-c8-stream-build-96443-40159 2023-01-09 19:05:43 expired
dist-c8-stream-build-96423-40159 2023-01-08 23:14:55 expired
dist-c8-stream-build-96406-40159 2023-01-08 03:05:59 expired
dist-c8-stream-build-96384-40149 2023-01-07 07:05:42 expired
dist-c8-stream-build-96367-40149 2023-01-06 11:20:43 expired
dist-c8-stream-build-96318-40113 2023-01-05 15:06:35 expired
dist-c8-stream-build-96298-40103 2023-01-04 19:05:57 expired
dist-c8-stream-build-96266-40076 2023-01-03 23:21:57 expired
dist-c8-stream-build-96232-40046 2023-01-03 03:06:23 expired
dist-c8-stream-build-96217-40046 2023-01-02 07:05:54 expired
dist-c8-stream-build-96202-40046 2023-01-01 11:18:06 expired
dist-c8-stream-build-96187-40046 2022-12-31 15:06:07 expired
dist-c8-stream-build-96172-40046 2022-12-30 19:05:56 expired
dist-c8-stream-build-96157-40046 2022-12-29 23:17:36 expired
dist-c8-stream-build-96142-40046 2022-12-29 03:05:45 expired
dist-c8-stream-build-96127-40046 2022-12-28 07:06:10 expired
dist-c8-stream-build-96112-40046 2022-12-27 11:17:05 expired
dist-c8-stream-build-96097-40046 2022-12-26 15:05:49 expired
dist-c8-stream-build-96082-40046 2022-12-25 19:06:22 expired
dist-c8-stream-build-96067-40046 2022-12-24 23:16:42 expired
dist-c8-stream-build-96042-40026 2022-12-24 03:05:32 expired
dist-c8-stream-build-96027-39985 2022-12-23 07:10:59 expired
dist-c8-stream-build-95983-39985 2022-12-22 11:15:43 expired
dist-c8-stream-build-95961-39971 2022-12-21 15:06:36 expired
dist-c8-stream-build-95931-39941 2022-12-20 19:06:05 expired
dist-c8-stream-build-95853-39900 2022-12-19 23:14:19 expired
dist-c8-stream-build-95824-39864 2022-12-19 03:05:52 expired
dist-c8-stream-build-95807-39864 2022-12-18 07:06:02 expired
dist-c8-stream-build-95790-39864 2022-12-17 11:14:37 expired
dist-c8-stream-build-95773-39864 2022-12-16 15:06:55 expired
dist-c8-stream-build-95737-39829 2022-12-15 19:05:54 expired
dist-c8-stream-build-95711-39812 2022-12-14 23:05:54 expired
dist-c8-stream-build-95652-39771 2022-12-14 03:06:04 expired
dist-c8-stream-build-95617-39719 2022-12-13 07:07:13 expired
dist-c8-stream-build-95556-39719 2022-12-12 11:16:20 expired
dist-c8-stream-build-95545-39719 2022-12-11 15:06:32 expired
dist-c8-stream-build-95534-39719 2022-12-10 19:06:34 expired
dist-c8-stream-build-95498-39697 2022-12-09 23:06:45 expired
dist-c8-stream-build-95470-39662 2022-12-09 03:06:28 expired
dist-c8-stream-build-95428-39626 2022-12-08 07:07:31 expired
dist-c8-stream-build-95391-39581 2022-12-07 11:16:01 expired